ΕΜΥ, Εθνική Μετεωρολογική Υπηρεσία - Δελτία Καιρού, Προγνώσεις

ΑΕΡΟΝΑΥΤΙΛΙΑ

GREEK AIRPORTS CODES

LGPA 041920Z AUTO 01016KT //// // ////// 20/09 Q1019 RERA RMK 0.0MM=

EUROPEAN AIRPORTS CODES

LKPR 041900Z 21007KT CAVOK 10/07 Q1023 NOSIG=